MET'MAP v2.0
soon released !

Expected late october,
this new version will be
more efficient, smarter,
and hosted on a brand new
server x3 powerfull...
...and still free !


Not compatible ?
Try the mobile version !

LOG IN : | Subscribe | Disclaimer | Who is Orbifly ? |
ICAO code :

TAF - EHWO Woensdrecht Airbase - 18 Feb 2020 22:31 UTC
Data Sources :     NOAA   


- Airport Elevation : 63 ft
- IATA code : BZM
- No reported NOTAMs.


EHWO - Woensdrecht Airbase

Latest METAR recorded : 2015/08/11 08:11 EHWO 110811Z AUTO 25005KT 9999 BKN007/// OVC008/// 19/18 Q1018 GRN
TAF TAF EHWO
Valid from the 18 at 10:00 until the 18 at 22:00 UTC


180941Z 1810/1822 25012G22KT 9999 SCT025
PROB40
TEMPO 1810/1814 FEW018CB BKN020
TEMPO 1810/1818 25015G32KT
TEMPO 1814/1822 FEW018CB BKN020
TEMPO 1820/1822 4000 -RA -SHRA FEW012 SCT018CB BKN020
TEMPO 1821/1822 24020G38KT 2500 TSRAGS SCT012 BKN015CB

Source NOAA


MET'MAP, your aeronautical weather chart ! - Copyright ORBIFLY December 2007

Programming & Development : Alexandra Zaïnal
Co-Developer : Marc-Olivier Méhu
Technical & hardware support : Manuel Goepfert
Concept & Financing : Baudouin d'Aumeries